x

Port Orford - 15 Nm West Of Port Orford, Or (46015) Wave Buoy

3:50pm - Sat 30th May 2015 All times are PDT. -7 hours from GMT.

  • Sig Wave height 4.6ft
  • Swell Direction
  • Peak Period 8s
  • Average Period 6s
  • Wind
    16mph, 20mph gusts
  • Sea Temp 49°f
  • Air Temp 51°f
  • Sea Pressure 1014.6mb
  • Port Orford - 15 Nm West Of Port Orford, Or
  • Port Orford - 15 Nm West Of Port Orford, Or

More Historic Weather Station data

Upgrade to MSW Pro to gain access to the past 30 days of data for over 8000 Wavebouys and Weather Stations around the globe.

Join Pro

Comparision Forecast

View Surf forecast
   
Sat 05/30 3:50pm 4.5ft 8s 6s 16 20 mph 1014.6mb 49f 51f
2:50pm 4.5ft 8s 6s 18 20 mph 1015.1mb 49f 51f
1:50pm 5ft 15s 6s 16 18 mph 1015.7mb 49f 51f
12:50pm 4.5ft 14s 6s 16 18 mph 1015.7mb 49f 51f
11:50am 4.5ft 8s 6s 13 16 mph 1016mb 49f 51f
10:50am 5ft 8s 6s 13 16 mph 1015.5mb 49f 51f
9:50am 4.5ft 9s 6s 13 18 mph 1015.7mb 48f 51f
8:50am 5ft 15s 6s 13 16 mph 1015.7mb 48f 51f
7:50am 5ft 15s 7s 13 16 mph 1015.3mb 48f 50f
6:50am 5ft 15s 6s 13 16 mph 1015.4mb 48f 51f
5:50am 5ft 8s 7s 13 16 mph 1015.4mb 48f 51f
4:50am 5ft 8s 6s 13 16 mph 1015.6mb 48f 51f
3:50am 5ft 9s 6s 13 16 mph 1015.7mb 48f 51f
2:50am 5ft 8s 6s 13 16 mph 1015.7mb 48f 51f
1:50am 5ft 16s 7s 13 16 mph 1015.7mb 48f 51f
12:50am 5.5ft 15s 7s 11 13 mph 1016.4mb 48f 51f
Fri 05/29 11:50pm 5ft 16s 7s 11
mph
1016.7mb 48f 51f
10:50pm 4.5ft 8s 7s 11 13 mph 1016.3mb 48f 51f
9:50pm 5ft 8s 7s 11 13 mph 1016.1mb 48f 51f
8:50pm 5ft 15s 7s 11 13 mph 1015.7mb 49f 51f
7:50pm 4.5ft 15s 7s 9 11 mph 1016.3mb 49f 51f
6:50pm 4.5ft 16s 7s 11
mph
1016.3mb 49f 51f
5:50pm 4.5ft 16s 7s 9
mph
1016.8mb 49f 52f
4:50pm 4.5ft 12s 7s 9 11 mph 1016.9mb 50f 52f
3:50pm 5ft 16s 7s 11 13 mph 1016.8mb 50f 52f
2:50pm 4.5ft 16s 7s 11 13 mph 1016.9mb 51f 52f
1:50pm 5ft 16s 7s 11 16 mph 1017.1mb 50f 51f
12:50pm 5ft 16s 7s 13 16 mph 1017mb 49f 51f
11:50am 5.5ft 16s 7s 9 11 mph 1017.7mb 49f 51f
10:50am 5ft 15s 7s 9 11 mph 1017.6mb 49f 51f
9:50am 5ft 16s 7s 9 11 mph 1017.7mb 48f 51f
8:50am 5ft 12s 7s 11 13 mph 1017.4mb 48f 50f
7:50am 5ft 16s 7s 11 13 mph 1017.6mb 48f 51f
6:50am 4.5ft 14s 6s 11 16 mph 1017.7mb 49f 51f
5:50am 5.5ft 12s 7s 13 16 mph 1017mb 49f 51f
4:50am 5.5ft 12s 7s 11 13 mph 1017.3mb 49f 51f
3:50am 5ft 14s 6s 11 13 mph 1017.6mb 49f 51f
2:50am 5ft 11s 6s 13 18 mph 1017.8mb 50f 52f
1:50am 5.5ft 14s 7s 16 20 mph 1017.9mb 50f 52f
12:50am 6ft 13s 7s 16 20 mph 1018.1mb 50f 52f
Thu 05/28 11:50pm 5ft 16s 6s 18 20 mph 1017.9mb 50f 52f
10:50pm 5.5ft 12s 6s 16 18 mph 1018.5mb 50f 52f
9:50pm 5ft 17s 6s 16 18 mph 1018.3mb 50f 52f
8:50pm 5.5ft 12s 6s 18 22 mph 1017.8mb 50f 52f
7:50pm 6ft 12s 6s 18 20 mph 1017.5mb 50f 52f
6:50pm 6ft 12s 7s 20 22 mph 1017.2mb 50f 53f
5:50pm 6ft 15s 6s 20 25 mph 1017.6mb 50f 53f
4:50pm 6ft 13s 7s 18 22 mph 1018.3mb 50f 53f
3:50pm 5.5ft 13s 6s 20 22 mph 1018.1mb 51f 53f
2:50pm 6ft 13s 7s 18 20 mph 1018.6mb 51f 53f
1:50pm 6ft 13s 7s 18 22 mph 1018.7mb 51f 52f
12:50pm 6.5ft 13s 7s 16 18 mph 1018.8mb 51f 52f
11:50am 6ft 12s 7s 18 20 mph 1018.5mb 50f 51f
10:50am 6ft 14s 7s 18 22 mph 1018.6mb 50f 51f
9:50am 6ft 14s 7s 16 20 mph 1019mb 50f 51f
8:50am 6.5ft 13s 7s 16 18 mph 1019.1mb 49f 51f
7:50am 6.5ft 13s 7s 16 18 mph 1018.7mb 49f 51f
6:50am 7ft 15s 8s 16 20 mph 1018.9mb 49f 51f
5:50am 6ft 13s 7s 16 20 mph 1018.6mb 49f 51f
4:50am 6.5ft 12s 7s 13
mph
1018.5mb 49f 51f
3:50am 7ft 12s 7s 16 18 mph 1018.2mb 49f 51f
2:50am 7ft 14s 7s 16 18 mph 1018.4mb 49f 51f
1:50am 7ft 13s 7s 13 18 mph 1018.6mb 49f 51f
12:50am 7ft 14s 7s 16 20 mph 1018.6mb 49f 51f
Wed 05/27 11:50pm 7ft 17s 7s 16 20 mph 1018.6mb 49f 51f
10:50pm 7.5ft 13s 7s 16 18 mph 1018.5mb 49f 51f
9:50pm 7ft 12s 6s 22 27 mph 1017.7mb 49f 51f
8:50pm 6.5ft 14s  -  22 27 mph 1017.1mb 49f 52f
7:50pm 6.5ft 19s 6s 20 25 mph 1017mb 49f 52f
6:50pm 7ft 14s 6s 22 25 mph 1017mb 49f 52f
5:50pm 6.5ft 12s 6s 20 25 mph 1017.1mb 49f 52f
4:50pm 6ft 13s 6s 22 27 mph 1017.2mb 50f 52f
3:50pm 7ft 15s 6s 22 25 mph 1017.3mb 50f 52f
2:50pm 6.5ft 14s 6s 22 27 mph 1017.5mb 50f 52f
1:50pm 6ft 12s 6s 20 25 mph 1018mb 50f 52f
12:50pm 6ft 15s 7s 22 27 mph 1018.1mb 50f 52f
11:50am 6ft 15s 7s 18 22 mph 1018.4mb 50f 51f
10:50am 5.5ft 15s 6s 18 22 mph 1018.4mb 50f 51f
9:50am 7ft 15s 7s 16 20 mph 1018.5mb 50f 51f
8:50am 6ft 15s 7s 16 18 mph 1018.4mb 49f 51f
7:50am 6.5ft 15s 7s 16 18 mph 1018.3mb 49f 51f
6:50am 6ft 16s 6s 16 20 mph 1018.1mb 49f 51f
5:50am 6ft 16s 7s 18 22 mph 1017.9mb 49f 51f
4:50am 6ft 15s 6s 16 18 mph 1018.1mb 50f 51f
3:50am 6ft 16s 6s 20 25 mph 1018mb 50f 52f
2:50am 6ft 16s 6s 18 22 mph 1018.1mb 50f 52f
1:50am 5.5ft 15s 6s 18 22 mph 1017.9mb 50f 52f
12:50am 5.5ft 16s 6s 20 22 mph 1017.8mb 50f 52f
Tue 05/26 11:50pm 5.5ft 16s 6s 20 25 mph 1017.9mb 50f 52f